Time,TemperatureF,DewpointF,PressureIn,WindDirection,WindDirectionDegrees,WindSpeedMPH,WindSpeedGustMPH,Humidity,HourlyPrecipIn,Conditions,Clouds,dailyrainin,SolarRadiationWatts/m^2,SoftwareType,DateUTC
2013-07-23 00:02:00,73.9,66.2,29.64,North,0,9.0,9.0,77,0.00,,,0.00,0,Wunderground v.1.15,2013-07-23 05:02:00,
2013-07-23 00:12:00,73.3,65.3,29.64,NNW,335,7.0,7.0,76,0.00,,,0.00,0,Wunderground v.1.15,2013-07-23 05:12:00,
2013-07-23 00:22:00,72.7,65.1,29.65,NW,315,8.0,12.0,77,0.00,,,0.00,0,Wunderground v.1.15,2013-07-23 05:22:00,
2013-07-23 00:32:00,71.1,63.5,29.65,NNW,337,8.0,8.0,77,0.00,,,0.00,0,Wunderground v.1.15,2013-07-23 05:32:00,
2013-07-23 00:42:00,70.4,62.8,29.64,NNW,346,7.0,12.0,77,0.00,,,0.00,0,Wunderground v.1.15,2013-07-23 05:42:00,
2013-07-23 00:52:00,70.1,61.4,29.63,North,359,8.0,10.0,74,0.00,,,0.00,0,Wunderground v.1.15,2013-07-23 05:52:00,
2013-07-23 01:02:00,69.8,59.6,29.63,NNW,328,7.0,7.0,70,0.00,,,0.00,0,Wunderground v.1.15,2013-07-23 06:02:00,
2013-07-23 01:12:00,69.6,58.2,29.64,North,0,7.0,11.0,67,0.00,,,0.00,0,Wunderground v.1.15,2013-07-23 06:12:00,
2013-07-23 01:22:00,69.8,58.3,29.64,North,357,8.0,8.0,67,0.00,,,0.00,0,Wunderground v.1.15,2013-07-23 06:22:00,
2013-07-23 01:32:00,69.8,58.3,29.64,NW,322,7.0,13.0,67,0.00,,,0.00,0,Wunderground v.1.15,2013-07-23 06:32:00,
2013-07-23 01:42:00,69.6,58.6,29.64,North,7,6.0,6.0,68,0.00,,,0.00,0,Wunderground v.1.15,2013-07-23 06:42:00,
2013-07-23 01:52:00,69.4,58.4,29.64,North,0,6.0,6.0,68,0.00,,,0.00,0,Wunderground v.1.15,2013-07-23 06:52:00,
2013-07-23 02:02:00,69.3,58.7,29.64,North,357,6.0,6.0,69,0.00,,,0.00,0,Wunderground v.1.15,2013-07-23 07:02:00,
2013-07-23 02:12:00,68.9,58.3,29.65,NNW,344,4.0,4.0,69,0.00,,,0.00,0,Wunderground v.1.15,2013-07-23 07:12:00,
2013-07-23 02:22:00,68.8,58.2,29.65,North,0,5.0,5.0,69,0.00,,,0.00,0,Wunderground v.1.15,2013-07-23 07:22:00,
2013-07-23 02:32:00,68.6,58.0,29.65,North,354,5.0,5.0,69,0.00,,,0.00,0,Wunderground v.1.15,2013-07-23 07:32:00,
2013-07-23 02:42:00,68.4,57.8,29.66,North,0,6.0,6.0,69,0.00,,,0.00,0,Wunderground v.1.15,2013-07-23 07:42:00,
2013-07-23 02:52:00,68.3,58.1,29.67,North,354,6.0,6.0,70,0.00,,,0.00,0,Wunderground v.1.15,2013-07-23 07:52:00,
2013-07-23 03:02:00,68.3,58.1,29.67,North,3,5.0,6.0,70,0.00,,,0.00,0,Wunderground v.1.15,2013-07-23 08:02:00,
2013-07-23 03:12:00,68.1,58.3,29.67,North,0,4.0,4.0,71,0.00,,,0.00,0,Wunderground v.1.15,2013-07-23 08:12:00,
2013-07-23 03:22:00,67.9,58.1,29.68,NNW,336,4.0,4.0,71,0.00,,,0.00,0,Wunderground v.1.15,2013-07-23 08:22:00,
2013-07-23 03:32:00,67.6,57.5,29.68,NNE,13,4.0,8.0,70,0.00,,,0.00,0,Wunderground v.1.15,2013-07-23 08:32:00,
2013-07-23 03:42:00,67.4,57.7,29.68,North,357,5.0,7.0,71,0.00,,,0.00,0,Wunderground v.1.15,2013-07-23 08:42:00,
2013-07-23 03:52:00,67.3,58.3,29.69,North,0,5.0,5.0,73,0.00,,,0.00,0,Wunderground v.1.15,2013-07-23 08:52:00,
2013-07-23 04:12:00,66.6,57.3,29.69,North,1,6.0,6.0,72,0.00,,,0.00,0,Wunderground v.1.15,2013-07-23 09:12:00,
2013-07-23 04:22:00,66.3,55.8,29.69,North,357,7.0,7.0,69,0.00,,,0.00,0,Wunderground v.1.15,2013-07-23 09:22:00,
2013-07-23 04:32:00,65.6,55.2,29.69,North,354,6.0,7.0,69,0.00,,,0.00,0,Wunderground v.1.15,2013-07-23 09:32:00,
2013-07-23 04:42:00,65.2,54.8,29.70,North,0,6.0,6.0,69,0.00,,,0.00,0,Wunderground v.1.15,2013-07-23 09:42:00,
2013-07-23 04:52:00,64.8,54.8,29.70,North,356,5.0,5.0,70,0.00,,,0.00,0,Wunderground v.1.15,2013-07-23 09:52:00,
2013-07-23 05:02:00,64.3,54.7,29.70,North,350,5.0,5.0,71,0.00,,,0.00,0,Wunderground v.1.15,2013-07-23 10:02:00,
2013-07-23 05:12:00,63.9,54.7,29.70,North,357,3.0,3.0,72,0.00,,,0.00,0,Wunderground v.1.15,2013-07-23 10:12:00,
2013-07-23 05:22:00,63.5,54.7,29.71,North,0,2.0,2.0,73,0.00,,,0.00,0,Wunderground v.1.15,2013-07-23 10:22:00,
2013-07-23 05:32:00,63.1,54.7,29.71,NNW,347,4.0,6.0,74,0.00,,,0.00,0,Wunderground v.1.15,2013-07-23 10:32:00,
2013-07-23 05:42:00,62.7,54.3,29.72,North,0,2.0,2.0,74,0.00,,,0.00,9,Wunderground v.1.15,2013-07-23 10:42:00,
2013-07-23 05:52:00,62.6,54.6,29.72,North,0,1.0,1.0,75,0.00,,,0.00,11,Wunderground v.1.15,2013-07-23 10:52:00,
2013-07-23 06:02:00,62.4,54.7,29.72,NNW,347,2.0,6.0,76,0.00,,,0.00,39,Wunderground v.1.15,2013-07-23 11:02:00,
2013-07-23 06:12:00,62.6,54.9,29.72,North,0,3.0,4.0,76,0.00,,,0.00,48,Wunderground v.1.15,2013-07-23 11:12:00,
2013-07-23 06:22:00,62.9,55.2,29.73,North,0,4.0,5.0,76,0.00,,,0.00,93,Wunderground v.1.15,2013-07-23 11:22:00,
2013-07-23 06:42:00,63.5,55.4,29.73,North,6,6.0,6.0,75,0.00,,,0.00,148,Wunderground v.1.15,2013-07-23 11:42:00,
2013-07-23 06:52:00,63.7,55.3,29.73,NNW,346,6.0,8.0,74,0.00,,,0.00,174,Wunderground v.1.15,2013-07-23 11:52:00,
2013-07-23 07:03:00,63.9,55.4,29.73,North,4,6.0,10.0,74,0.00,,,0.00,202,Wunderground v.1.15,2013-07-23 12:03:00,
2013-07-23 07:12:00,64.0,55.2,29.73,NW,316,6.0,10.0,73,0.00,,,0.00,225,Wunderground v.1.15,2013-07-23 12:12:00,
2013-07-23 07:22:00,64.2,54.6,29.74,North,0,8.0,8.0,71,0.00,,,0.00,253,Wunderground v.1.15,2013-07-23 12:22:00,
2013-07-23 07:32:00,64.0,54.0,29.74,NNW,342,9.0,13.0,70,0.00,,,0.00,282,Wunderground v.1.15,2013-07-23 12:32:00,
2013-07-23 07:42:00,63.7,53.7,29.75,NNW,336,9.0,9.0,70,0.00,,,0.00,310,Wunderground v.1.15,2013-07-23 12:42:00,
2013-07-23 07:52:00,63.7,54.1,29.75,North,356,9.0,9.0,71,0.00,,,0.00,338,Wunderground v.1.15,2013-07-23 12:52:00,
2013-07-23 08:02:00,64.0,54.0,29.75,NW,313,7.0,11.0,70,0.00,,,0.00,368,Wunderground v.1.15,2013-07-23 13:02:00,
2013-07-23 08:12:00,63.7,53.7,29.75,North,0,9.0,9.0,70,0.00,,,0.00,396,Wunderground v.1.15,2013-07-23 13:12:00,
2013-07-23 08:22:00,63.9,54.3,29.76,NNW,329,8.0,8.0,71,0.00,,,0.00,428,Wunderground v.1.15,2013-07-23 13:22:00,
2013-07-23 08:32:00,63.4,53.4,29.76,North,8,12.0,13.0,70,0.00,,,0.00,501,Wunderground v.1.15,2013-07-23 13:32:00,
2013-07-23 08:42:00,63.5,53.5,29.76,NW,306,10.0,12.0,70,0.00,,,0.00,549,Wunderground v.1.15,2013-07-23 13:42:00,
2013-07-23 08:52:00,63.2,52.5,29.76,NNW,336,12.0,12.0,68,0.00,,,0.00,621,Wunderground v.1.15,2013-07-23 13:52:00,
2013-07-23 09:02:00,62.7,52.0,29.76,NNW,344,10.0,12.0,68,0.00,,,0.00,283,Wunderground v.1.15,2013-07-23 14:02:00,
2013-07-23 09:12:00,63.1,52.4,29.77,NNE,23,10.0,11.0,68,0.00,,,0.00,329,Wunderground v.1.15,2013-07-23 14:12:00,
2013-07-23 09:22:00,64.5,54.1,29.78,North,1,8.0,11.0,69,0.00,,,0.00,894,Wunderground v.1.15,2013-07-23 14:22:00,
2013-07-23 09:32:00,63.1,52.4,29.78,NNW,332,9.0,11.0,68,0.00,,,0.00,155,Wunderground v.1.15,2013-07-23 14:32:00,
2013-07-23 09:42:00,61.6,51.7,29.79,NNW,330,9.0,9.0,70,0.00,,,0.00,172,Wunderground v.1.15,2013-07-23 14:42:00,
2013-07-23 09:52:00,61.5,52.4,29.80,NE,40,8.0,8.0,72,0.00,,,0.00,216,Wunderground v.1.15,2013-07-23 14:52:00,
2013-07-23 10:02:00,61.0,51.5,29.80,NW,316,10.0,10.0,71,0.00,,,0.00,209,Wunderground v.1.15,2013-07-23 15:02:00,
2013-07-23 10:12:00,60.7,51.2,29.81,North,0,8.0,10.0,71,0.00,,,0.00,271,Wunderground v.1.15,2013-07-23 15:12:00,
2013-07-23 10:22:00,60.5,50.7,29.82,North,0,10.0,12.0,70,0.00,,,0.00,282,Wunderground v.1.15,2013-07-23 15:22:00,
2013-07-23 10:32:00,60.7,50.9,29.82,NNW,336,10.0,10.0,70,0.00,,,0.00,377,Wunderground v.1.15,2013-07-23 15:32:00,
2013-07-23 10:42:00,61.5,50.8,29.83,NNW,329,9.0,13.0,68,0.00,,,0.00,459,Wunderground v.1.15,2013-07-23 15:42:00,
2013-07-23 10:52:00,62.1,50.6,29.82,North,1,9.0,16.0,66,0.00,,,0.00,392,Wunderground v.1.15,2013-07-23 15:52:00,
2013-07-23 11:42:00,63.5,51.9,29.83,North,0,9.0,9.0,66,0.00,,,0.00,343,Wunderground v.1.15,2013-07-23 16:42:00,
2013-07-23 11:52:00,63.9,52.3,29.83,North,359,9.0,9.0,66,0.00,,,0.00,303,Wunderground v.1.15,2013-07-23 16:52:00,
2013-07-23 12:02:00,65.0,50.8,29.83,NNE,21,10.0,16.0,60,0.00,,,0.00,968,Wunderground v.1.15,2013-07-23 17:02:00,
2013-07-23 12:12:00,65.3,51.1,29.84,North,0,10.0,11.0,60,0.00,,,0.00,968,Wunderground v.1.15,2013-07-23 17:12:00,
2013-07-23 12:22:00,64.8,51.0,29.84,NNW,343,10.0,10.0,61,0.00,,,0.00,350,Wunderground v.1.15,2013-07-23 17:22:00,
2013-07-23 12:32:00,64.8,51.9,29.84,NNW,339,11.0,15.0,63,0.00,,,0.00,918,Wunderground v.1.15,2013-07-23 17:32:00,
2013-07-23 12:42:00,64.7,51.8,29.85,NNW,332,11.0,12.0,63,0.00,,,0.00,308,Wunderground v.1.15,2013-07-23 17:42:00,
2013-07-23 12:52:00,64.5,51.2,29.86,North,0,11.0,11.0,62,0.00,,,0.00,926,Wunderground v.1.15,2013-07-23 17:52:00,
2013-07-23 13:12:00,64.8,49.7,29.88,North,11,10.0,10.0,58,0.00,,,0.00,987,Wunderground v.1.15,2013-07-23 18:12:00,
2013-07-23 13:32:00,64.5,50.3,29.88,NNE,16,9.0,9.0,60,0.00,,,0.00,961,Wunderground v.1.15,2013-07-23 18:32:00,
2013-07-23 13:42:00,64.0,50.3,29.88,NE,47,12.0,12.0,61,0.00,,,0.00,929,Wunderground v.1.15,2013-07-23 18:42:00,
2013-07-23 13:52:00,64.0,48.9,29.87,NNW,332,12.0,12.0,58,0.00,,,0.00,882,Wunderground v.1.15,2013-07-23 18:52:00,
2013-07-23 14:02:00,64.2,50.5,29.87,NNE,27,13.0,13.0,61,0.00,,,0.00,962,Wunderground v.1.15,2013-07-23 19:02:00,
2013-07-23 14:12:00,65.0,49.9,29.87,North,10,10.0,11.0,58,0.00,,,0.00,933,Wunderground v.1.15,2013-07-23 19:12:00,
2013-07-23 14:22:00,64.5,49.8,29.88,North,357,12.0,12.0,59,0.00,,,0.00,816,Wunderground v.1.15,2013-07-23 19:22:00,
2013-07-23 14:32:00,64.8,50.1,29.88,NE,47,10.0,10.0,59,0.00,,,0.00,801,Wunderground v.1.15,2013-07-23 19:32:00,
2013-07-23 14:42:00,64.7,50.5,29.88,North,359,11.0,11.0,60,0.00,,,0.00,787,Wunderground v.1.15,2013-07-23 19:42:00,
2013-07-23 14:52:00,66.0,50.8,29.88,NNE,17,7.0,7.0,58,0.00,,,0.00,774,Wunderground v.1.15,2013-07-23 19:52:00,
2013-07-23 15:12:00,66.0,51.3,29.88,NNE,30,8.0,8.0,59,0.00,,,0.00,748,Wunderground v.1.15,2013-07-23 20:12:00,
2013-07-23 15:22:00,66.3,50.1,29.88,NNE,18,9.0,12.0,56,0.00,,,0.00,728,Wunderground v.1.15,2013-07-23 20:22:00,
2013-07-23 15:32:00,66.1,51.8,29.88,NNE,18,9.0,9.0,60,0.00,,,0.00,723,Wunderground v.1.15,2013-07-23 20:32:00,
2013-07-23 16:12:00,66.9,51.6,29.88,NE,35,8.0,12.0,58,0.00,,,0.00,630,Wunderground v.1.15,2013-07-23 21:12:00,
2013-07-23 16:22:00,66.9,51.6,29.89,NNE,30,9.0,9.0,58,0.00,,,0.00,605,Wunderground v.1.15,2013-07-23 21:22:00,
2013-07-23 16:32:00,66.8,51.1,29.89,NNE,32,9.0,9.0,57,0.00,,,0.00,582,Wunderground v.1.15,2013-07-23 21:32:00,
2013-07-23 16:52:00,66.9,50.7,29.90,NE,40,10.0,11.0,56,0.00,,,0.00,530,Wunderground v.1.15,2013-07-23 21:52:00,
2013-07-23 17:02:00,66.9,51.2,29.90,North,0,9.0,12.0,57,0.00,,,0.00,503,Wunderground v.1.15,2013-07-23 22:02:00,
2013-07-23 17:12:00,66.8,50.1,29.90,North,357,9.0,9.0,55,0.00,,,0.00,477,Wunderground v.1.15,2013-07-23 22:12:00,
2013-07-23 17:22:00,66.9,50.7,29.90,North,11,8.0,8.0,56,0.00,,,0.00,450,Wunderground v.1.15,2013-07-23 22:22:00,
2013-07-23 17:32:00,66.9,50.2,29.90,NNE,17,8.0,12.0,55,0.00,,,0.00,422,Wunderground v.1.15,2013-07-23 22:32:00,
2013-07-23 17:42:00,66.8,50.1,29.90,NNE,13,8.0,8.0,55,0.00,,,0.00,398,Wunderground v.1.15,2013-07-23 22:42:00,
2013-07-23 17:52:00,66.6,49.9,29.90,NNE,18,7.0,7.0,55,0.00,,,0.00,370,Wunderground v.1.15,2013-07-23 22:52:00,
2013-07-23 18:12:00,66.0,49.8,29.90,NNE,27,9.0,9.0,56,0.00,,,0.00,313,Wunderground v.1.15,2013-07-23 23:12:00,
2013-07-23 18:42:00,65.2,49.1,29.90,NNE,23,8.0,9.0,56,0.00,,,0.00,230,Wunderground v.1.15,2013-07-23 23:42:00,
2013-07-23 18:52:00,64.8,49.7,29.91,NE,49,7.0,7.0,58,0.00,,,0.00,202,Wunderground v.1.15,2013-07-23 23:52:00,
2013-07-23 19:03:00,64.5,48.0,29.91,NNE,30,8.0,10.0,55,0.00,,,0.00,172,Wunderground v.1.15,2013-07-24 00:03:00,
2013-07-23 19:12:00,64.0,47.5,29.91,NE,38,7.0,10.0,55,0.00,,,0.00,150,Wunderground v.1.15,2013-07-24 00:12:00,
2013-07-23 19:22:00,63.5,47.0,29.91,NE,40,10.0,10.0,55,0.00,,,0.00,127,Wunderground v.1.15,2013-07-24 00:22:00,
2013-07-23 19:32:00,63.2,47.2,29.91,NE,35,7.0,7.0,56,0.00,,,0.00,23,Wunderground v.1.15,2013-07-24 00:32:00,
2013-07-23 19:52:00,62.1,47.1,29.91,NE,38,5.0,5.0,58,0.00,,,0.00,53,Wunderground v.1.15,2013-07-24 00:52:00,
2013-07-23 20:02:00,61.3,46.4,29.91,NE,40,4.0,7.0,58,0.00,,,0.00,16,Wunderground v.1.15,2013-07-24 01:02:00,
2013-07-23 20:12:00,60.7,46.7,29.92,NE,44,4.0,4.0,60,0.00,,,0.00,7,Wunderground v.1.15,2013-07-24 01:12:00,
2013-07-23 20:32:00,59.3,47.1,29.92,NE,44,0.0,0.0,64,0.00,,,0.00,0,Wunderground v.1.15,2013-07-24 01:32:00,
2013-07-23 20:42:00,58.6,47.3,29.93,NE,44,0.0,0.0,66,0.00,,,0.00,0,Wunderground v.1.15,2013-07-24 01:42:00,
2013-07-23 20:52:00,57.6,47.5,29.93,NE,44,0.0,0.0,69,0.00,,,0.00,0,Wunderground v.1.15,2013-07-24 01:52:00,
2013-07-23 21:02:00,57.0,47.3,29.93,NE,44,0.0,0.0,70,0.00,,,0.00,0,Wunderground v.1.15,2013-07-24 02:02:00,
2013-07-23 21:12:00,56.3,47.8,29.94,NE,44,1.0,2.0,73,0.00,,,0.00,0,Wunderground v.1.15,2013-07-24 02:12:00,
2013-07-23 21:22:00,55.7,47.5,29.95,NE,44,2.0,2.0,74,0.00,,,0.00,0,Wunderground v.1.15,2013-07-24 02:22:00,
2013-07-23 21:32:00,55.3,47.5,29.95,NE,44,2.0,2.0,75,0.00,,,0.00,0,Wunderground v.1.15,2013-07-24 02:32:00,
2013-07-23 21:42:00,55.0,47.6,29.95,NE,44,2.0,2.0,76,0.00,,,0.00,0,Wunderground v.1.15,2013-07-24 02:42:00,
2013-07-23 21:52:00,54.8,47.4,29.95,NE,44,1.0,1.0,76,0.00,,,0.00,0,Wunderground v.1.15,2013-07-24 02:52:00,
2013-07-23 22:02:00,54.2,47.5,29.95,NE,44,0.0,0.0,78,0.00,,,0.00,0,Wunderground v.1.15,2013-07-24 03:02:00,
2013-07-23 22:12:00,53.1,47.7,29.96,NE,44,0.0,0.0,82,0.00,,,0.00,0,Wunderground v.1.15,2013-07-24 03:12:00,
2013-07-23 22:22:00,52.3,47.6,29.96,NE,44,0.0,0.0,84,0.00,,,0.00,0,Wunderground v.1.15,2013-07-24 03:22:00,
2013-07-23 22:42:00,51.4,47.7,29.96,NE,44,0.0,0.0,87,0.00,,,0.00,0,Wunderground v.1.15,2013-07-24 03:42:00,
2013-07-23 22:52:00,51.0,47.6,29.97,NE,44,0.0,1.0,88,0.00,,,0.00,0,Wunderground v.1.15,2013-07-24 03:52:00,
2013-07-23 23:02:00,50.2,47.4,29.97,NE,44,1.0,1.0,90,0.00,,,0.00,0,Wunderground v.1.15,2013-07-24 04:02:00,
2013-07-23 23:12:00,50.2,48.0,29.97,NE,44,0.0,1.0,92,0.00,,,0.00,0,Wunderground v.1.15,2013-07-24 04:12:00,
2013-07-23 23:22:00,50.4,48.2,29.97,NE,44,1.0,1.0,92,0.00,,,0.00,0,Wunderground v.1.15,2013-07-24 04:22:00,
2013-07-23 23:32:00,50.1,47.9,29.97,NE,44,1.0,1.0,92,0.00,,,0.00,0,Wunderground v.1.15,2013-07-24 04:32:00,
2013-07-23 23:42:00,49.5,47.6,29.97,NE,44,1.0,1.0,93,0.00,,,0.00,0,Wunderground v.1.15,2013-07-24 04:42:00,
2013-07-23 23:52:00,49.2,47.5,29.97,NE,44,0.0,1.0,94,0.00,,,0.00,0,Wunderground v.1.15,2013-07-24 04:52:00,